sensor_id;sensor_type;location;lat;lon;timestamp;temperature;humidity
23713;DHT22;12035;49.978;8.298;2023-07-02T00:02:39;21.80;55.70
23713;DHT22;12035;49.978;8.298;2023-07-02T00:07:36;21.80;55.70
23713;DHT22;12035;49.978;8.298;2023-07-02T00:12:33;21.70;55.80
23713;DHT22;12035;49.978;8.298;2023-07-02T00:17:30;21.70;55.80
23713;DHT22;12035;49.978;8.298;2023-07-02T00:22:29;21.60;55.80
23713;DHT22;12035;49.978;8.298;2023-07-02T00:27:26;21.60;56.50
23713;DHT22;12035;49.978;8.298;2023-07-02T00:32:23;21.50;55.90
23713;DHT22;12035;49.978;8.298;2023-07-02T00:37:20;21.50;55.90
23713;DHT22;12035;49.978;8.298;2023-07-02T00:42:19;21.40;55.90
23713;DHT22;12035;49.978;8.298;2023-07-02T00:47:16;21.40;55.90
23713;DHT22;12035;49.978;8.298;2023-07-02T00:52:13;21.30;55.90
23713;DHT22;12035;49.978;8.298;2023-07-02T00:57:11;21.30;55.80
23713;DHT22;12035;49.978;8.298;2023-07-02T01:02:10;21.30;55.80
23713;DHT22;12035;49.978;8.298;2023-07-02T01:07:08;21.20;55.60
23713;DHT22;12035;49.978;8.298;2023-07-02T01:12:08;21.10;55.50
23713;DHT22;12035;49.978;8.298;2023-07-02T01:17:07;21.10;55.50
23713;DHT22;12035;49.978;8.298;2023-07-02T01:22:08;21.00;55.60
23713;DHT22;12035;49.978;8.298;2023-07-02T01:27:06;21.00;55.50
23713;DHT22;12035;49.978;8.298;2023-07-02T01:32:06;20.90;55.40
23713;DHT22;12035;49.978;8.298;2023-07-02T01:37:05;20.80;55.30
23713;DHT22;12035;49.978;8.298;2023-07-02T01:42:11;20.80;55.30
23713;DHT22;12035;49.978;8.298;2023-07-02T01:47:11;20.70;55.40
23713;DHT22;12035;49.978;8.298;2023-07-02T01:52:08;20.60;55.40
23713;DHT22;12035;49.978;8.298;2023-07-02T01:57:06;20.50;55.30
23713;DHT22;12035;49.978;8.298;2023-07-02T02:02:04;20.40;55.30
23713;DHT22;12035;49.978;8.298;2023-07-02T02:07:01;20.30;55.30
23713;DHT22;12035;49.978;8.298;2023-07-02T02:11:58;20.20;55.20
23713;DHT22;12035;49.978;8.298;2023-07-02T02:16:55;20.10;55.20
23713;DHT22;12035;49.978;8.298;2023-07-02T02:21:54;20.00;55.20
23713;DHT22;12035;49.978;8.298;2023-07-02T02:26:51;20.00;55.10
23713;DHT22;12035;49.978;8.298;2023-07-02T02:31:48;20.00;55.00
23713;DHT22;12035;49.978;8.298;2023-07-02T02:36:45;20.00;54.90
23713;DHT22;12035;49.978;8.298;2023-07-02T02:41:44;19.90;54.70
23713;DHT22;12035;49.978;8.298;2023-07-02T02:46:41;19.90;54.70
23713;DHT22;12035;49.978;8.298;2023-07-02T02:51:38;19.80;54.70
23713;DHT22;12035;49.978;8.298;2023-07-02T02:56:36;19.70;54.70
23713;DHT22;12035;49.978;8.298;2023-07-02T03:01:34;19.70;54.70
23713;DHT22;12035;49.978;8.298;2023-07-02T03:06:31;19.60;54.70
23713;DHT22;12035;49.978;8.298;2023-07-02T03:11:28;19.50;54.80
23713;DHT22;12035;49.978;8.298;2023-07-02T03:16:25;19.40;55.40
23713;DHT22;12035;49.978;8.298;2023-07-02T03:21:23;19.40;54.70
23713;DHT22;12035;49.978;8.298;2023-07-02T03:26:20;19.40;54.80
23713;DHT22;12035;49.978;8.298;2023-07-02T03:31:18;19.40;54.90
23713;DHT22;12035;49.978;8.298;2023-07-02T03:36:15;19.30;54.90
23713;DHT22;12035;49.978;8.298;2023-07-02T03:41:13;19.30;54.90
23713;DHT22;12035;49.978;8.298;2023-07-02T03:46:10;19.40;54.80
23713;DHT22;12035;49.978;8.298;2023-07-02T03:51:07;19.40;54.80
23713;DHT22;12035;49.978;8.298;2023-07-02T03:56:04;19.40;54.80
23713;DHT22;12035;49.978;8.298;2023-07-02T04:01:03;19.40;54.80
23713;DHT22;12035;49.978;8.298;2023-07-02T04:05:59;19.40;54.80
23713;DHT22;12035;49.978;8.298;2023-07-02T04:10:56;19.50;54.70
23713;DHT22;12035;49.978;8.298;2023-07-02T04:15:54;19.50;54.60
23713;DHT22;12035;49.978;8.298;2023-07-02T04:20:52;19.50;54.50
23713;DHT22;12035;49.978;8.298;2023-07-02T04:25:49;19.50;54.60
23713;DHT22;12035;49.978;8.298;2023-07-02T04:30:46;19.50;54.50
23713;DHT22;12035;49.978;8.298;2023-07-02T04:35:47;19.50;54.50
23713;DHT22;12035;49.978;8.298;2023-07-02T04:40:45;19.50;54.50
23713;DHT22;12035;49.978;8.298;2023-07-02T04:45:42;19.50;54.50
23713;DHT22;12035;49.978;8.298;2023-07-02T04:50:41;19.60;54.60
23713;DHT22;12035;49.978;8.298;2023-07-02T04:55:38;19.60;54.50
23713;DHT22;12035;49.978;8.298;2023-07-02T05:00:37;19.60;54.70
23713;DHT22;12035;49.978;8.298;2023-07-02T05:05:34;19.70;55.10
23713;DHT22;12035;49.978;8.298;2023-07-02T05:10:31;19.90;54.90
23713;DHT22;12035;49.978;8.298;2023-07-02T05:15:28;20.20;55.10
23713;DHT22;12035;49.978;8.298;2023-07-02T05:20:27;20.40;54.60
23713;DHT22;12035;49.978;8.298;2023-07-02T05:25:24;20.80;54.60
23713;DHT22;12035;49.978;8.298;2023-07-02T05:30:21;21.10;54.80
23713;DHT22;12035;49.978;8.298;2023-07-02T05:35:17;21.70;55.10
23713;DHT22;12035;49.978;8.298;2023-07-02T05:40:16;22.50;55.50
23713;DHT22;12035;49.978;8.298;2023-07-02T05:45:13;23.60;54.50
23713;DHT22;12035;49.978;8.298;2023-07-02T05:50:10;24.80;52.20
23713;DHT22;12035;49.978;8.298;2023-07-02T05:55:08;25.70;50.20
23713;DHT22;12035;49.978;8.298;2023-07-02T06:00:09;26.40;48.80
23713;DHT22;12035;49.978;8.298;2023-07-02T06:05:07;27.00;47.00
23713;DHT22;12035;49.978;8.298;2023-07-02T06:10:05;27.50;46.30
23713;DHT22;12035;49.978;8.298;2023-07-02T06:15:04;27.80;44.80
23713;DHT22;12035;49.978;8.298;2023-07-02T06:20:04;27.70;43.60
23713;DHT22;12035;49.978;8.298;2023-07-02T06:25:01;27.10;42.60
23713;DHT22;12035;49.978;8.298;2023-07-02T06:29:59;26.50;43.10
23713;DHT22;12035;49.978;8.298;2023-07-02T06:34:56;25.80;43.90
23713;DHT22;12035;49.978;8.298;2023-07-02T06:39:54;25.40;44.70
23713;DHT22;12035;49.978;8.298;2023-07-02T06:44:52;25.10;45.30
23713;DHT22;12035;49.978;8.298;2023-07-02T06:49:51;25.00;46.00
23713;DHT22;12035;49.978;8.298;2023-07-02T06:54:48;25.10;46.70
23713;DHT22;12035;49.978;8.298;2023-07-02T06:59:46;25.70;47.30
23713;DHT22;12035;49.978;8.298;2023-07-02T07:04:44;26.60;46.50
23713;DHT22;12035;49.978;8.298;2023-07-02T07:09:40;27.50;45.90
23713;DHT22;12035;49.978;8.298;2023-07-02T07:14:37;28.60;45.50
23713;DHT22;12035;49.978;8.298;2023-07-02T07:19:36;29.60;42.40
23713;DHT22;12035;49.978;8.298;2023-07-02T07:24:33;30.00;39.90
23713;DHT22;12035;49.978;8.298;2023-07-02T07:29:30;29.90;40.20
23713;DHT22;12035;49.978;8.298;2023-07-02T07:34:27;30.10;40.60
23713;DHT22;12035;49.978;8.298;2023-07-02T07:39:25;30.50;39.90
23713;DHT22;12035;49.978;8.298;2023-07-02T07:44:22;30.90;38.80
23713;DHT22;12035;49.978;8.298;2023-07-02T07:49:24;31.30;38.90
23713;DHT22;12035;49.978;8.298;2023-07-02T07:54:21;31.50;37.70
23713;DHT22;12035;49.978;8.298;2023-07-02T07:59:19;31.80;37.80
23713;DHT22;12035;49.978;8.298;2023-07-02T08:04:16;32.10;37.70
23713;DHT22;12035;49.978;8.298;2023-07-02T08:09:13;32.50;36.70
23713;DHT22;12035;49.978;8.298;2023-07-02T08:14:11;32.60;35.70
23713;DHT22;12035;49.978;8.298;2023-07-02T08:19:09;32.60;35.20
23713;DHT22;12035;49.978;8.298;2023-07-02T08:24:06;32.50;34.80
23713;DHT22;12035;49.978;8.298;2023-07-02T08:29:03;32.50;35.40
23713;DHT22;12035;49.978;8.298;2023-07-02T08:34:00;32.60;35.00
23713;DHT22;12035;49.978;8.298;2023-07-02T08:38:59;32.50;34.40
23713;DHT22;12035;49.978;8.298;2023-07-02T08:43:56;32.20;34.20
23713;DHT22;12035;49.978;8.298;2023-07-02T08:48:55;31.80;34.20
23713;DHT22;12035;49.978;8.298;2023-07-02T08:53:52;31.30;34.40
23713;DHT22;12035;49.978;8.298;2023-07-02T08:58:50;30.70;34.80
23713;DHT22;12035;49.978;8.298;2023-07-02T09:03:49;30.30;35.60
23713;DHT22;12035;49.978;8.298;2023-07-02T09:08:46;30.00;35.70
23713;DHT22;12035;49.978;8.298;2023-07-02T09:13:44;29.80;36.00
23713;DHT22;12035;49.978;8.298;2023-07-02T09:18:43;29.50;36.30
23713;DHT22;12035;49.978;8.298;2023-07-02T09:23:40;29.20;35.50
23713;DHT22;12035;49.978;8.298;2023-07-02T09:28:37;29.00;35.60
23713;DHT22;12035;49.978;8.298;2023-07-02T09:33:34;28.70;36.10
23713;DHT22;12035;49.978;8.298;2023-07-02T09:38:33;28.50;36.70
23713;DHT22;12035;49.978;8.298;2023-07-02T09:43:31;28.50;36.30
23713;DHT22;12035;49.978;8.298;2023-07-02T09:48:29;28.50;36.30
23713;DHT22;12035;49.978;8.298;2023-07-02T09:53:28;28.30;36.20
23713;DHT22;12035;49.978;8.298;2023-07-02T09:58:27;28.10;36.30
23713;DHT22;12035;49.978;8.298;2023-07-02T10:03:30;27.70;36.50
23713;DHT22;12035;49.978;8.298;2023-07-02T10:08:27;27.50;36.60
23713;DHT22;12035;49.978;8.298;2023-07-02T10:13:30;27.50;36.80
23713;DHT22;12035;49.978;8.298;2023-07-02T10:18:27;27.40;37.00
23713;DHT22;12035;49.978;8.298;2023-07-02T10:23:33;27.50;36.80
23713;DHT22;12035;49.978;8.298;2023-07-02T10:28:32;27.60;35.90
23713;DHT22;12035;49.978;8.298;2023-07-02T10:33:29;27.60;35.40
23713;DHT22;12035;49.978;8.298;2023-07-02T10:38:26;27.60;35.50
23713;DHT22;12035;49.978;8.298;2023-07-02T10:43:26;27.70;35.80
23713;DHT22;12035;49.978;8.298;2023-07-02T10:48:25;27.80;35.60
23713;DHT22;12035;49.978;8.298;2023-07-02T10:53:22;27.90;35.10
23713;DHT22;12035;49.978;8.298;2023-07-02T10:58:19;27.80;35.10
23713;DHT22;12035;49.978;8.298;2023-07-02T11:03:17;27.90;34.60
23713;DHT22;12035;49.978;8.298;2023-07-02T11:08:17;28.00;34.70
23713;DHT22;12035;49.978;8.298;2023-07-02T11:13:15;28.20;34.80
23713;DHT22;12035;49.978;8.298;2023-07-02T11:18:13;28.30;34.50
23713;DHT22;12035;49.978;8.298;2023-07-02T11:23:18;28.30;34.30
23713;DHT22;12035;49.978;8.298;2023-07-02T11:28:17;28.30;34.20
23713;DHT22;12035;49.978;8.298;2023-07-02T11:33:14;28.10;34.60
23713;DHT22;12035;49.978;8.298;2023-07-02T11:38:11;28.10;34.70
23713;DHT22;12035;49.978;8.298;2023-07-02T11:43:10;28.10;34.60
23713;DHT22;12035;49.978;8.298;2023-07-02T11:48:07;28.20;34.90
23713;DHT22;12035;49.978;8.298;2023-07-02T11:53:04;28.10;35.30
23713;DHT22;12035;49.978;8.298;2023-07-02T11:58:01;28.10;34.50
23713;DHT22;12035;49.978;8.298;2023-07-02T12:02:59;28.10;34.70
23713;DHT22;12035;49.978;8.298;2023-07-02T12:07:56;28.00;34.00
23713;DHT22;12035;49.978;8.298;2023-07-02T12:12:53;28.00;34.10
23713;DHT22;12035;49.978;8.298;2023-07-02T12:17:50;28.00;33.70
23713;DHT22;12035;49.978;8.298;2023-07-02T12:22:48;28.00;33.40
23713;DHT22;12035;49.978;8.298;2023-07-02T12:27:45;28.10;32.80
23713;DHT22;12035;49.978;8.298;2023-07-02T12:32:42;28.00;33.30
23713;DHT22;12035;49.978;8.298;2023-07-02T12:37:43;28.00;33.70
23713;DHT22;12035;49.978;8.298;2023-07-02T12:42:43;28.00;33.70
23713;DHT22;12035;49.978;8.298;2023-07-02T12:47:42;28.10;33.80
23713;DHT22;12035;49.978;8.298;2023-07-02T12:52:39;28.10;34.10
23713;DHT22;12035;49.978;8.298;2023-07-02T12:57:36;28.20;33.60
23713;DHT22;12035;49.978;8.298;2023-07-02T13:02:34;28.30;33.30
23713;DHT22;12035;49.978;8.298;2023-07-02T13:07:31;28.30;33.10
23713;DHT22;12035;49.978;8.298;2023-07-02T13:12:28;28.40;33.10
23713;DHT22;12035;49.978;8.298;2023-07-02T13:17:25;28.40;33.50
23713;DHT22;12035;49.978;8.298;2023-07-02T13:22:23;28.40;33.60
23713;DHT22;12035;49.978;8.298;2023-07-02T13:27:20;28.50;33.40
23713;DHT22;12035;49.978;8.298;2023-07-02T13:32:17;28.60;32.80
23713;DHT22;12035;49.978;8.298;2023-07-02T13:37:15;28.60;32.40
23713;DHT22;12035;49.978;8.298;2023-07-02T13:42:15;28.60;32.20
23713;DHT22;12035;49.978;8.298;2023-07-02T13:47:12;28.50;32.40
23713;DHT22;12035;49.978;8.298;2023-07-02T13:52:10;28.50;32.80
23713;DHT22;12035;49.978;8.298;2023-07-02T13:57:07;28.50;33.10
23713;DHT22;12035;49.978;8.298;2023-07-02T14:02:06;28.50;33.10
23713;DHT22;12035;49.978;8.298;2023-07-02T14:07:04;28.50;33.10
23713;DHT22;12035;49.978;8.298;2023-07-02T14:12:01;28.50;33.10
23713;DHT22;12035;49.978;8.298;2023-07-02T14:16:59;28.50;32.90
23713;DHT22;12035;49.978;8.298;2023-07-02T14:21:57;28.50;32.60
23713;DHT22;12035;49.978;8.298;2023-07-02T14:26:54;28.50;32.50
23713;DHT22;12035;49.978;8.298;2023-07-02T14:31:51;28.50;32.90
23713;DHT22;12035;49.978;8.298;2023-07-02T14:36:48;28.40;33.10
23713;DHT22;12035;49.978;8.298;2023-07-02T14:41:46;28.50;33.20
23713;DHT22;12035;49.978;8.298;2023-07-02T14:46:43;28.50;33.10
23713;DHT22;12035;49.978;8.298;2023-07-02T14:51:40;28.50;32.90
23713;DHT22;12035;49.978;8.298;2023-07-02T14:56:37;28.60;32.90
23713;DHT22;12035;49.978;8.298;2023-07-02T15:01:36;28.50;32.90
23713;DHT22;12035;49.978;8.298;2023-07-02T15:06:33;28.50;32.60
23713;DHT22;12035;49.978;8.298;2023-07-02T15:11:30;28.50;32.80
23713;DHT22;12035;49.978;8.298;2023-07-02T15:16:27;28.50;32.90
23713;DHT22;12035;49.978;8.298;2023-07-02T15:21:26;28.50;32.20
23713;DHT22;12035;49.978;8.298;2023-07-02T15:26:22;28.40;32.20
23713;DHT22;12035;49.978;8.298;2023-07-02T15:31:20;28.40;31.60
23713;DHT22;12035;49.978;8.298;2023-07-02T15:36:19;28.40;32.10
23713;DHT22;12035;49.978;8.298;2023-07-02T15:41:19;28.40;32.10
23713;DHT22;12035;49.978;8.298;2023-07-02T15:46:17;28.30;31.90
23713;DHT22;12035;49.978;8.298;2023-07-02T15:51:14;28.30;31.90
23713;DHT22;12035;49.978;8.298;2023-07-02T15:56:11;28.20;32.00
23713;DHT22;12035;49.978;8.298;2023-07-02T16:01:12;28.20;32.00
23713;DHT22;12035;49.978;8.298;2023-07-02T16:06:11;28.30;32.10
23713;DHT22;12035;49.978;8.298;2023-07-02T16:11:10;28.30;31.80
23713;DHT22;12035;49.978;8.298;2023-07-02T16:16:10;28.30;31.60
23713;DHT22;12035;49.978;8.298;2023-07-02T16:21:08;28.40;31.50
23713;DHT22;12035;49.978;8.298;2023-07-02T16:26:07;28.40;31.40
23713;DHT22;12035;49.978;8.298;2023-07-02T16:31:07;28.40;31.30
23713;DHT22;12035;49.978;8.298;2023-07-02T16:36:08;28.40;31.20
23713;DHT22;12035;49.978;8.298;2023-07-02T16:41:06;28.30;31.30
23713;DHT22;12035;49.978;8.298;2023-07-02T16:46:03;28.20;31.20
23713;DHT22;12035;49.978;8.298;2023-07-02T16:51:03;28.20;31.40
23713;DHT22;12035;49.978;8.298;2023-07-02T16:56:04;28.10;31.30
23713;DHT22;12035;49.978;8.298;2023-07-02T17:01:04;28.10;31.50
23713;DHT22;12035;49.978;8.298;2023-07-02T17:06:05;28.00;31.60
23713;DHT22;12035;49.978;8.298;2023-07-02T17:11:04;28.00;31.60
23713;DHT22;12035;49.978;8.298;2023-07-02T17:16:02;27.90;31.70
23713;DHT22;12035;49.978;8.298;2023-07-02T17:21:01;27.90;31.70
23713;DHT22;12035;49.978;8.298;2023-07-02T17:26:01;27.80;31.70
23713;DHT22;12035;49.978;8.298;2023-07-02T17:31:02;27.70;31.70
23713;DHT22;12035;49.978;8.298;2023-07-02T17:35:59;27.60;31.70
23713;DHT22;12035;49.978;8.298;2023-07-02T17:40:56;27.60;31.80
23713;DHT22;12035;49.978;8.298;2023-07-02T17:45:55;27.50;31.90
23713;DHT22;12035;49.978;8.298;2023-07-02T17:50:54;27.40;32.00
23713;DHT22;12035;49.978;8.298;2023-07-02T17:55:52;27.40;32.00
23713;DHT22;12035;49.978;8.298;2023-07-02T18:00:49;27.30;32.00
23713;DHT22;12035;49.978;8.298;2023-07-02T18:05:48;27.10;32.00
23713;DHT22;12035;49.978;8.298;2023-07-02T18:10:46;27.00;32.30
23713;DHT22;12035;49.978;8.298;2023-07-02T18:15:44;26.90;32.50
23713;DHT22;12035;49.978;8.298;2023-07-02T18:20:41;26.80;32.70
23713;DHT22;12035;49.978;8.298;2023-07-02T18:25:40;26.80;32.80
23713;DHT22;12035;49.978;8.298;2023-07-02T18:30:42;26.70;32.90
23713;DHT22;12035;49.978;8.298;2023-07-02T18:35:40;26.60;33.10
23713;DHT22;12035;49.978;8.298;2023-07-02T18:40:40;26.60;33.40
23713;DHT22;12035;49.978;8.298;2023-07-02T18:45:37;26.50;33.60
23713;DHT22;12035;49.978;8.298;2023-07-02T18:50:36;26.40;33.70
23713;DHT22;12035;49.978;8.298;2023-07-02T18:55:33;26.40;33.90
23713;DHT22;12035;49.978;8.298;2023-07-02T19:00:32;26.40;34.00
23713;DHT22;12035;49.978;8.298;2023-07-02T19:05:29;26.30;34.20
23713;DHT22;12035;49.978;8.298;2023-07-02T19:10:26;26.30;34.30
23713;DHT22;12035;49.978;8.298;2023-07-02T19:15:23;26.20;34.40
23713;DHT22;12035;49.978;8.298;2023-07-02T19:20:22;26.20;34.60
23713;DHT22;12035;49.978;8.298;2023-07-02T19:25:19;26.10;34.80
23713;DHT22;12035;49.978;8.298;2023-07-02T19:30:16;26.00;34.90
23713;DHT22;12035;49.978;8.298;2023-07-02T19:35:14;26.00;35.10
23713;DHT22;12035;49.978;8.298;2023-07-02T19:40:13;25.90;35.20
23713;DHT22;12035;49.978;8.298;2023-07-02T19:45:11;25.90;35.40
23713;DHT22;12035;49.978;8.298;2023-07-02T19:50:08;25.80;35.50
23713;DHT22;12035;49.978;8.298;2023-07-02T19:55:08;25.80;35.70
23713;DHT22;12035;49.978;8.298;2023-07-02T20:00:09;25.70;35.90
23713;DHT22;12035;49.978;8.298;2023-07-02T20:05:08;25.60;36.10
23713;DHT22;12035;49.978;8.298;2023-07-02T20:10:07;25.50;36.30
23713;DHT22;12035;49.978;8.298;2023-07-02T20:15:05;25.40;36.60
23713;DHT22;12035;49.978;8.298;2023-07-02T20:20:06;25.30;36.80
23713;DHT22;12035;49.978;8.298;2023-07-02T20:25:05;25.30;37.10
23713;DHT22;12035;49.978;8.298;2023-07-02T20:30:03;25.10;37.20
23713;DHT22;12035;49.978;8.298;2023-07-02T20:35:03;25.10;37.50
23713;DHT22;12035;49.978;8.298;2023-07-02T20:40:00;25.00;37.70
23713;DHT22;12035;49.978;8.298;2023-07-02T20:45:07;24.90;37.80
23713;DHT22;12035;49.978;8.298;2023-07-02T20:50:10;24.90;38.00
23713;DHT22;12035;49.978;8.298;2023-07-02T20:55:09;24.90;38.10
23713;DHT22;12035;49.978;8.298;2023-07-02T21:00:07;24.80;38.10
23713;DHT22;12035;49.978;8.298;2023-07-02T21:05:09;24.70;38.30
23713;DHT22;12035;49.978;8.298;2023-07-02T21:10:08;24.70;38.30
23713;DHT22;12035;49.978;8.298;2023-07-02T21:15:07;24.60;38.40
23713;DHT22;12035;49.978;8.298;2023-07-02T21:20:05;24.40;38.50
23713;DHT22;12035;49.978;8.298;2023-07-02T21:25:05;24.30;38.70
23713;DHT22;12035;49.978;8.298;2023-07-02T21:30:02;24.20;38.80
23713;DHT22;12035;49.978;8.298;2023-07-02T21:35:00;24.20;38.80
23713;DHT22;12035;49.978;8.298;2023-07-02T21:39:59;24.00;38.90
23713;DHT22;12035;49.978;8.298;2023-07-02T21:44:58;24.00;39.00
23713;DHT22;12035;49.978;8.298;2023-07-02T21:49:55;23.90;39.10
23713;DHT22;12035;49.978;8.298;2023-07-02T21:54:52;23.80;39.20
23713;DHT22;12035;49.978;8.298;2023-07-02T21:59:49;23.70;39.40
23713;DHT22;12035;49.978;8.298;2023-07-02T22:04:48;23.70;39.50
23713;DHT22;12035;49.978;8.298;2023-07-02T22:09:44;23.60;39.60
23713;DHT22;12035;49.978;8.298;2023-07-02T22:14:41;23.50;39.60
23713;DHT22;12035;49.978;8.298;2023-07-02T22:19:38;23.40;39.60
23713;DHT22;12035;49.978;8.298;2023-07-02T22:24:37;23.30;39.70
23713;DHT22;12035;49.978;8.298;2023-07-02T22:29:34;23.20;39.90
23713;DHT22;12035;49.978;8.298;2023-07-02T22:34:31;23.20;39.90
23713;DHT22;12035;49.978;8.298;2023-07-02T22:39:28;23.10;40.00
23713;DHT22;12035;49.978;8.298;2023-07-02T22:44:26;23.00;40.10
23713;DHT22;12035;49.978;8.298;2023-07-02T22:49:23;23.00;40.20
23713;DHT22;12035;49.978;8.298;2023-07-02T22:54:20;22.90;40.20
23713;DHT22;12035;49.978;8.298;2023-07-02T22:59:18;22.90;40.10
23713;DHT22;12035;49.978;8.298;2023-07-02T23:04:16;22.90;40.20
23713;DHT22;12035;49.978;8.298;2023-07-02T23:09:18;22.90;40.20
23713;DHT22;12035;49.978;8.298;2023-07-02T23:14:15;22.90;40.30
23713;DHT22;12035;49.978;8.298;2023-07-02T23:19:12;22.80;40.30
23713;DHT22;12035;49.978;8.298;2023-07-02T23:24:11;22.80;40.30
23713;DHT22;12035;49.978;8.298;2023-07-02T23:29:08;22.70;40.50
23713;DHT22;12035;49.978;8.298;2023-07-02T23:34:05;22.70;40.60
23713;DHT22;12035;49.978;8.298;2023-07-02T23:39:02;22.60;40.70
23713;DHT22;12035;49.978;8.298;2023-07-02T23:44:01;22.60;40.90
23713;DHT22;12035;49.978;8.298;2023-07-02T23:48:58;22.60;41.00
23713;DHT22;12035;49.978;8.298;2023-07-02T23:53:55;22.60;41.10
23713;DHT22;12035;49.978;8.298;2023-07-02T23:58:52;22.50;41.10
